Ridgemont, New York
Current Conditions -  °F | °C
As of 8:54 PM on Monday 24 Nov 2014 (Local Time) from KROC Reporting Station
Clear Clear  
Wind Chill: 39°   Ceiling: Unl
Heat Index: 47°   Visibility: 10mi
Dew Point: 38°   Wind: 23mph
Humidity: 71%   Direction: 260°W
Pressure: 29.58"   Gusts: 30mph
Location:  43.2109°N, 77.7136°W
Report Text: KROC 250154Z 26020G26KT 10SM CLR 08/03 A2958 RMK AO2 PK WND 26031/0130 SLP019 T00830033
Loading
Personal Weather Stations






























Interactive Weather Map New forecast layout! Learn more

10-Day Weather Forecast

Advertisements
Track Severe Weather on mobile